Time;durP1;ratioP1;P1;durP2;ratioP2;P2;SDS_P1;SDS_P2;PMS_P1;PMS_P2;Temp;Humidity;BMP_temperature;BMP_pressure;BME280_temperature;BME280_humidity;BME280_pressure;Samples;Min_cycle;Max_cycle;Signal;HPM_P1;HPM_P2
2021/08/23 00:01:59;;;;;;;9.23;4.78;;;;;;;-145.01;100.00;64805.59;4992495;28;20405;-64
2021/08/23 00:04:24;;;;;;;10.38;4.85;;;;;;;-145.01;100.00;64805.59;4992913;28;20465;-64
2021/08/23 00:06:50;;;;;;;9.38;4.97;;;;;;;-145.01;100.00;64805.59;4995535;28;20050;-64
2021/08/23 00:09:19;;;;;;;9.00;5.35;;;;;;;-145.01;100.00;64805.59;4996501;28;20038;-64
2021/08/23 00:11:44;;;;;;;8.25;5.28;;;;;;;-145.01;100.00;64805.59;4996145;28;20034;-64
2021/08/23 00:14:10;;;;;;;14.10;5.60;;;;;;;-145.01;100.00;64805.59;4995276;28;20396;-64
2021/08/23 00:16:35;;;;;;;10.82;5.30;;;;;;;-145.01;100.00;64805.59;4996084;28;20156;-64
2021/08/23 00:19:01;;;;;;;9.38;5.25;;;;;;;-145.01;100.00;64805.59;4996376;28;20026;-64
2021/08/23 00:21:27;;;;;;;13.80;5.13;;;;;;;-145.01;100.00;64805.59;4995908;28;20069;-64
2021/08/23 00:24:05;;;;;;;12.32;5.18;;;;;;;-145.01;100.00;64805.59;4995117;28;20022;-64
2021/08/23 00:26:30;;;;;;;9.63;5.13;;;;;;;-145.01;100.00;64805.59;4995814;28;20114;-64
2021/08/23 00:28:56;;;;;;;10.57;5.15;;;;;;;-145.01;100.00;64805.59;4994901;28;20030;-64
2021/08/23 00:31:21;;;;;;;11.05;5.45;;;;;;;-145.01;100.00;64805.59;4994436;28;20034;-64
2021/08/23 00:33:47;;;;;;;11.98;5.40;;;;;;;-145.01;100.00;64805.59;4995986;28;20372;-64
2021/08/23 00:36:12;;;;;;;10.52;5.32;;;;;;;-145.01;100.00;64805.59;4995700;28;20412;-64
2021/08/23 00:38:38;;;;;;;9.20;5.38;;;;;;;-145.01;100.00;64805.59;4996198;28;20077;-64
2021/08/23 00:41:03;;;;;;;11.10;5.85;;;;;;;-145.01;100.00;64805.59;4995597;28;20031;-64
2021/08/23 00:43:29;;;;;;;12.80;5.80;;;;;;;-145.01;100.00;64805.59;4996041;28;20018;-64
2021/08/23 00:45:55;;;;;;;11.60;5.70;;;;;;;-145.01;100.00;64805.59;4995539;28;20038;-64
2021/08/23 00:48:20;;;;;;;12.70;6.38;;;;;;;-145.01;100.00;64805.59;4995838;28;20034;-64
2021/08/23 00:50:46;;;;;;;14.02;5.88;;;;;;;-145.01;100.00;64805.59;4995340;28;20045;-64
2021/08/23 00:53:11;;;;;;;12.05;5.95;;;;;;;-145.01;100.00;64805.59;4994726;28;20396;-63
2021/08/23 00:55:37;;;;;;;12.52;5.50;;;;;;;-145.01;100.00;64805.59;4995245;28;20035;-64
2021/08/23 00:58:02;;;;;;;13.02;6.30;;;;;;;-145.01;100.00;64805.59;4995675;28;20031;-64
2021/08/23 01:00:29;;;;;;;11.57;5.85;;;;;;;-145.01;100.00;64805.59;4995088;28;20042;-64
2021/08/23 01:02:58;;;;;;;12.07;6.28;;;;;;;-145.01;100.00;64805.59;4995515;28;20105;-64
2021/08/23 01:05:28;;;;;;;14.90;6.77;;;;;;;-145.01;100.00;64805.59;4993892;28;20125;-64
2021/08/23 01:07:56;;;;;;;12.38;5.93;;;;;;;-145.01;100.00;64805.59;4994263;28;20026;-64
2021/08/23 01:10:31;;;;;;;11.48;5.88;;;;;;;-145.01;100.00;64805.59;4993608;28;20050;-64
2021/08/23 01:12:56;;;;;;;12.35;6.53;;;;;;;-145.01;100.00;64805.59;4995454;28;20039;-64
2021/08/23 01:15:22;;;;;;;15.77;6.47;;;;;;;-145.01;100.00;64805.59;4993747;28;20038;-64
2021/08/23 01:17:47;;;;;;;11.18;6.22;;;;;;;-145.01;100.00;64805.59;4991728;28;20077;-64
2021/08/23 01:20:13;;;;;;;11.07;6.57;;;;;;;-145.01;100.00;64805.59;4994696;28;20434;-64
2021/08/23 01:22:42;;;;;;;16.33;7.18;;;;;;;-145.01;100.00;64805.59;4977961;28;20057;-64
2021/08/23 01:25:07;;;;;;;20.38;6.47;;;;;;;-145.01;100.00;64805.59;4993456;28;20084;-64
2021/08/23 01:27:34;;;;;;;14.57;7.47;;;;;;;-145.01;100.00;64805.59;4977770;28;20030;-64
2021/08/23 01:30:12;;;;;;;13.02;7.28;;;;;;;-145.01;100.00;64805.59;4993885;28;20034;-64
2021/08/23 01:32:38;;;;;;;11.40;6.55;;;;;;;-145.01;100.00;64805.59;4993490;28;20046;-64
2021/08/23 01:35:05;;;;;;;12.13;6.30;;;;;;;-145.01;100.00;64805.59;4993269;28;20445;-64
2021/08/23 01:37:35;;;;;;;13.43;7.35;;;;;;;-145.01;100.00;64805.59;4994945;28;20049;-64
2021/08/23 01:40:00;;;;;;;14.35;7.07;;;;;;;-145.01;100.00;64805.59;4994925;28;20015;-64
2021/08/23 01:42:26;;;;;;;13.80;7.32;;;;;;;-145.01;100.00;64805.59;4994751;28;20397;-64
2021/08/23 01:44:51;;;;;;;11.40;6.82;;;;;;;-145.01;100.00;64805.59;4994640;28;20461;-64
2021/08/23 01:47:16;;;;;;;20.52;7.65;;;;;;;-145.01;100.00;64805.59;4992994;28;20047;-64
2021/08/23 01:49:42;;;;;;;14.05;7.20;;;;;;;-145.01;100.00;64805.59;4994465;28;20054;-64
2021/08/23 01:52:07;;;;;;;13.98;6.75;;;;;;;-145.01;100.00;64805.59;4994247;28;20034;-64
2021/08/23 01:54:33;;;;;;;13.35;7.00;;;;;;;-145.01;100.00;64805.59;4993392;28;20019;-64
2021/08/23 01:56:58;;;;;;;14.15;8.25;;;;;;;-145.01;100.00;64805.59;4994170;28;20042;-64
2021/08/23 01:59:24;;;;;;;14.63;7.60;;;;;;;-145.01;100.00;64805.59;4994458;28;20049;-64
2021/08/23 02:01:49;;;;;;;12.95;7.68;;;;;;;-145.01;100.00;64805.59;4994101;28;20117;-64
2021/08/23 02:04:15;;;;;;;13.05;7.38;;;;;;;-145.01;100.00;64805.59;4994632;28;20030;-64
2021/08/23 02:06:40;;;;;;;15.23;7.53;;;;;;;-145.01;100.00;64805.59;4994139;28;20401;-64
2021/08/23 02:09:06;;;;;;;17.45;7.80;;;;;;;-145.01;100.00;64805.59;4994229;28;20496;-64
2021/08/23 02:11:31;;;;;;;16.05;7.57;;;;;;;-145.01;100.00;64805.59;4993934;28;20157;-64
2021/08/23 02:13:56;;;;;;;16.98;7.53;;;;;;;-145.01;100.00;64805.59;4994232;28;20131;-64
2021/08/23 02:16:22;;;;;;;18.02;7.53;;;;;;;-145.01;100.00;64805.59;4993673;28;20031;-64
2021/08/23 02:18:47;;;;;;;12.15;7.60;;;;;;;-145.01;100.00;64805.59;4994033;28;20030;-64
2021/08/23 02:21:13;;;;;;;14.40;7.72;;;;;;;-145.01;100.00;64805.59;4992546;28;20045;-65
2021/08/23 02:23:38;;;;;;;24.02;8.77;;;;;;;-145.01;100.00;64805.59;4993970;28;20373;-64
2021/08/23 02:26:04;;;;;;;22.52;8.68;;;;;;;-145.01;100.00;64805.59;4993703;28;20046;-64
2021/08/23 02:28:29;;;;;;;13.52;8.00;;;;;;;-145.01;100.00;64805.59;4993183;28;20464;-64
2021/08/23 02:30:55;;;;;;;16.15;9.05;;;;;;;-145.01;100.00;64805.59;4993427;28;20037;-64
2021/08/23 02:33:20;;;;;;;15.77;8.75;;;;;;;-145.01;100.00;64805.59;4993992;28;20030;-64
2021/08/23 02:35:46;;;;;;;17.02;9.50;;;;;;;-145.01;100.00;64805.59;4984939;28;20493;-64
2021/08/23 02:38:11;;;;;;;23.67;10.27;;;;;;;-145.01;100.00;64805.59;4994027;28;20023;-64
2021/08/23 02:40:37;;;;;;;18.85;9.75;;;;;;;-145.01;100.00;64805.59;4993343;28;20038;-64
2021/08/23 02:43:02;;;;;;;20.80;10.85;;;;;;;-145.01;100.00;64805.59;4993766;28;20026;-64
2021/08/23 02:45:28;;;;;;;19.27;9.98;;;;;;;-145.01;100.00;64805.59;4992026;28;20042;-64
2021/08/23 02:47:53;;;;;;;22.48;10.43;;;;;;;-145.01;100.00;64805.59;4993612;28;20049;-64
2021/08/23 02:50:19;;;;;;;20.85;10.10;;;;;;;-145.01;100.00;64805.59;4993350;28;20047;-64
2021/08/23 02:52:44;;;;;;;19.98;10.93;;;;;;;-145.01;100.00;64805.59;4993787;28;20021;-65
2021/08/23 02:55:10;;;;;;;16.77;9.77;;;;;;;-145.01;100.00;64805.59;4993231;28;20022;-64
2021/08/23 02:57:35;;;;;;;21.63;10.63;;;;;;;-145.01;100.00;64805.59;4992203;28;20072;-64
2021/08/23 03:00:00;;;;;;;19.73;10.60;;;;;;;-145.01;100.00;64805.59;4993442;28;20492;-64
2021/08/23 03:02:26;;;;;;;19.92;9.85;;;;;;;-145.01;100.00;64805.59;4992176;28;20038;-64
2021/08/23 03:04:51;;;;;;;18.08;10.85;;;;;;;-145.01;100.00;64805.59;4993609;28;20037;-64
2021/08/23 03:07:17;;;;;;;20.60;10.13;;;;;;;-145.01;100.00;64805.59;4992947;28;20046;-64
2021/08/23 03:09:42;;;;;;;20.35;10.00;;;;;;;-145.01;100.00;64805.59;4993176;28;20481;-64
2021/08/23 03:12:08;;;;;;;18.55;10.52;;;;;;;-145.01;100.00;64805.59;4992912;28;20103;-64
2021/08/23 03:14:33;;;;;;;20.10;11.27;;;;;;;-145.01;100.00;64805.59;4993321;28;20022;-65
2021/08/23 03:16:58;;;;;;;18.90;10.98;;;;;;;-145.01;100.00;64805.59;4992637;28;20050;-64
2021/08/23 03:19:24;;;;;;;21.17;11.63;;;;;;;-145.01;100.00;64805.59;4993331;28;20469;-64
2021/08/23 03:21:49;;;;;;;21.73;10.82;;;;;;;-145.01;100.00;64805.59;4975474;28;20042;-64
2021/08/23 03:24:15;;;;;;;19.98;10.88;;;;;;;-145.01;100.00;64805.59;4993218;28;20039;-64
2021/08/23 03:26:40;;;;;;;20.85;10.40;;;;;;;-145.01;100.00;64805.59;4991528;28;20038;-64
2021/08/23 03:29:06;;;;;;;18.55;10.38;;;;;;;-145.01;100.00;64805.59;4993230;28;20054;-64
2021/08/23 03:31:31;;;;;;;20.48;10.85;;;;;;;-145.01;100.00;64805.59;4991473;28;20031;-65
2021/08/23 03:33:57;;;;;;;20.08;10.73;;;;;;;-145.01;100.00;64805.59;4991932;28;20023;-64
2021/08/23 03:36:22;;;;;;;20.38;11.00;;;;;;;-145.01;100.00;64805.59;4991673;28;20038;-65
2021/08/23 03:38:48;;;;;;;16.92;10.40;;;;;;;-145.01;100.00;64805.59;4993310;28;20121;-64
2021/08/23 03:41:14;;;;;;;19.50;9.20;;;;;;;-145.01;100.00;64805.59;4996573;28;20034;-64
2021/08/23 03:43:39;;;;;;;14.85;9.18;;;;;;;-145.01;100.00;64805.59;4997489;28;20030;-64
2021/08/23 03:46:05;;;;;;;18.20;10.30;;;;;;;-145.01;100.00;64805.59;4996544;28;20034;-64
2021/08/23 03:48:30;;;;;;;25.05;10.43;;;;;;;-145.01;100.00;64805.59;4995879;28;20080;-64
2021/08/23 03:50:56;;;;;;;18.13;9.50;;;;;;;-145.01;100.00;64805.59;4996607;28;20038;-64
2021/08/23 03:53:21;;;;;;;16.77;10.40;;;;;;;-145.01;100.00;64805.59;4995851;28;20058;-64
2021/08/23 03:55:47;;;;;;;18.00;10.55;;;;;;;-145.01;100.00;64805.59;4996405;28;20112;-64
2021/08/23 03:58:12;;;;;;;18.83;9.50;;;;;;;-145.01;100.00;64805.59;4996823;28;20495;-64
2021/08/23 04:00:37;;;;;;;20.00;9.95;;;;;;;-145.01;100.00;64805.59;4995136;28;20109;-64
2021/08/23 04:03:03;;;;;;;19.92;10.07;;;;;;;-145.01;100.00;64805.59;4997090;28;20473;-63
2021/08/23 04:05:28;;;;;;;17.17;9.52;;;;;;;-145.01;100.00;64805.59;4978939;28;20042;-64
2021/08/23 04:07:54;;;;;;;17.67;9.35;;;;;;;-145.01;100.00;64805.59;4996605;28;20026;-64
2021/08/23 04:10:19;;;;;;;15.93;9.00;;;;;;;-145.01;100.00;64805.59;4996154;28;20089;-64
2021/08/23 04:12:45;;;;;;;15.93;8.82;;;;;;;-145.01;100.00;64805.59;4996633;28;20019;-64
2021/08/23 04:15:10;;;;;;;15.00;8.57;;;;;;;-145.01;100.00;64805.59;4996285;28;20480;-64
2021/08/23 04:17:37;;;;;;;14.98;8.52;;;;;;;-145.01;100.00;64805.59;4996608;28;20112;-64
2021/08/23 04:20:03;;;;;;;17.83;8.68;;;;;;;-145.01;100.00;64805.59;4996299;28;20030;-64
2021/08/23 04:22:29;;;;;;;16.13;8.77;;;;;;;-145.01;100.00;64805.59;4996359;28;20038;-64
2021/08/23 04:24:54;;;;;;;14.57;8.07;;;;;;;-145.01;100.00;64805.59;4996558;28;20030;-64
2021/08/23 04:27:20;;;;;;;16.75;8.75;;;;;;;-145.01;100.00;64805.59;4995845;28;20039;-64
2021/08/23 04:29:45;;;;;;;13.73;7.88;;;;;;;-145.01;100.00;64805.59;4996596;28;20097;-64
2021/08/23 04:32:11;;;;;;;14.77;7.88;;;;;;;-145.01;100.00;64805.59;4995947;28;20401;-64
2021/08/23 04:34:36;;;;;;;17.63;8.80;;;;;;;-145.01;100.00;64805.59;4995158;28;20473;-64
2021/08/23 04:37:04;;;;;;;18.33;8.27;;;;;;;-145.01;100.00;64805.59;4995709;28;20046;-64
2021/08/23 04:39:32;;;;;;;17.50;8.73;;;;;;;-145.01;100.00;64805.59;4996047;28;20492;-64
2021/08/23 04:41:58;;;;;;;29.63;10.57;;;;;;;-145.01;100.00;64805.59;4995514;28;20455;-64
2021/08/23 04:44:23;;;;;;;20.00;8.38;;;;;;;-145.01;100.00;64805.59;4996190;28;20084;-63
2021/08/23 04:46:50;;;;;;;23.48;8.55;;;;;;;-145.01;100.00;64805.59;4995492;28;20492;-64
2021/08/23 04:49:16;;;;;;;26.25;8.05;;;;;;;-145.01;100.00;64805.59;4995956;28;20054;-64
2021/08/23 04:51:41;;;;;;;25.38;9.32;;;;;;;-145.01;100.00;64805.59;4994681;28;20065;-64
2021/08/23 04:54:06;;;;;;;29.40;9.70;;;;;;;-145.01;100.00;64805.59;4995888;28;20026;-64
2021/08/23 04:56:32;;;;;;;30.70;10.70;;;;;;;-145.01;100.00;64805.59;4995392;28;20445;-64
2021/08/23 04:58:57;;;;;;;18.77;8.15;;;;;;;-145.01;100.00;64805.59;4995893;28;20366;-64
2021/08/23 05:01:23;;;;;;;29.17;9.45;;;;;;;-145.01;100.00;64805.59;4995334;28;20056;-64
2021/08/23 05:03:48;;;;;;;24.52;9.05;;;;;;;-145.01;100.00;64805.59;4995965;28;20081;-64
2021/08/23 05:06:13;;;;;;;14.40;7.88;;;;;;;-145.01;100.00;64805.59;4977701;28;20069;-64
2021/08/23 05:08:39;;;;;;;26.17;8.18;;;;;;;-145.01;100.00;64805.59;4993768;28;20366;-64
2021/08/23 05:11:05;;;;;;;30.63;8.55;;;;;;;-145.01;100.00;64805.59;4993687;28;20508;-64
2021/08/23 05:13:30;;;;;;;17.45;7.80;;;;;;;-145.01;100.00;64805.59;4994264;28;20042;-64
2021/08/23 05:15:56;;;;;;;24.13;7.72;;;;;;;-145.01;100.00;64805.59;4995015;28;20034;-64
2021/08/23 05:18:22;;;;;;;21.63;7.55;;;;;;;-145.01;100.00;64805.59;4995451;28;20033;-64
2021/08/23 05:20:48;;;;;;;20.48;8.57;;;;;;;-145.01;100.00;64805.59;4995246;28;20058;-64
2021/08/23 05:23:14;;;;;;;22.13;8.98;;;;;;;-145.01;100.00;64805.59;4995399;28;20041;-64
2021/08/23 05:25:39;;;;;;;26.35;9.02;;;;;;;-145.01;100.00;64805.59;4993554;28;20472;-65
2021/08/23 05:28:04;;;;;;;26.70;10.63;;;;;;;-145.01;100.00;64805.59;4995136;28;20034;-64
2021/08/23 05:30:30;;;;;;;23.90;9.55;;;;;;;-145.01;100.00;64805.59;4995056;28;20041;-65
2021/08/23 05:32:55;;;;;;;29.65;9.63;;;;;;;-145.01;100.00;64805.59;4994122;28;20484;-64
2021/08/23 05:35:21;;;;;;;26.40;9.43;;;;;;;-145.01;100.00;64805.59;4994821;28;20437;-64
2021/08/23 05:37:46;;;;;;;28.73;9.93;;;;;;;-145.01;100.00;64805.59;4993947;28;20045;-64
2021/08/23 05:40:12;;;;;;;20.35;8.93;;;;;;;-145.01;100.00;64805.59;4994668;28;20027;-65
2021/08/23 05:42:38;;;;;;;29.88;9.68;;;;;;;-145.01;100.00;64805.59;4994977;28;20022;-64
2021/08/23 05:45:04;;;;;;;22.35;8.55;;;;;;;-145.01;100.00;64805.59;4994888;28;20035;-65
2021/08/23 05:47:29;;;;;;;20.70;8.63;;;;;;;-145.01;100.00;64805.59;4993621;28;20069;-64
2021/08/23 05:49:55;;;;;;;30.45;9.25;;;;;;;-145.01;100.00;64805.59;4994976;28;20026;-64
2021/08/23 05:52:20;;;;;;;33.65;10.02;;;;;;;-145.01;100.00;64805.59;4992912;28;20122;-64
2021/08/23 05:54:46;;;;;;;29.55;9.68;;;;;;;-145.01;100.00;64805.59;4993521;28;20022;-64
2021/08/23 05:57:12;;;;;;;32.90;9.20;;;;;;;-145.01;100.00;64805.59;4994183;28;20039;-64
2021/08/23 05:59:37;;;;;;;39.92;10.77;;;;;;;-145.01;100.00;64805.59;4994672;28;20034;-65
2021/08/23 06:02:03;;;;;;;19.00;9.30;;;;;;;-145.01;100.00;64805.59;4992645;28;20035;-65
2021/08/23 06:04:28;;;;;;;29.77;9.45;;;;;;;-145.01;100.00;64805.59;4993954;28;20029;-65
2021/08/23 06:06:53;;;;;;;33.35;9.60;;;;;;;-145.01;100.00;64805.59;4993989;28;20045;-65
2021/08/23 06:09:19;;;;;;;41.80;9.48;;;;;;;-145.01;100.00;64805.59;4994226;28;20047;-64
2021/08/23 06:11:45;;;;;;;26.95;8.93;;;;;;;-145.01;100.00;64805.59;4993871;28;20125;-64
2021/08/23 06:14:10;;;;;;;20.40;8.30;;;;;;;-145.01;100.00;64805.59;4994256;28;20018;-64
2021/08/23 06:16:36;;;;;;;29.65;9.55;;;;;;;-145.01;100.00;64805.59;4992614;28;20042;-63
2021/08/23 06:19:01;;;;;;;22.88;8.63;;;;;;;-145.01;100.00;64805.59;4993178;28;20030;-64
2021/08/23 06:21:27;;;;;;;20.83;8.73;;;;;;;-145.01;100.00;64805.59;4993862;28;20030;-63
2021/08/23 06:23:52;;;;;;;15.43;7.72;;;;;;;-145.01;100.00;64805.59;4994049;28;20037;-64
2021/08/23 06:26:18;;;;;;;19.60;8.00;;;;;;;-145.01;100.00;64805.59;4993551;28;20030;-64
2021/08/23 06:28:43;;;;;;;20.55;8.02;;;;;;;-145.01;100.00;64805.59;4994142;28;20385;-64
2021/08/23 06:31:09;;;;;;;18.65;7.95;;;;;;;-145.01;100.00;64805.59;4993632;28;20041;-64
2021/08/23 06:33:34;;;;;;;14.60;8.00;;;;;;;-145.01;100.00;64805.59;4994005;28;20170;-64
2021/08/23 06:36:00;;;;;;;21.88;8.30;;;;;;;-145.01;100.00;64805.59;4993513;28;20488;-64
2021/08/23 06:38:25;;;;;;;21.77;8.52;;;;;;;-145.01;100.00;64805.59;4993957;28;20099;-64
2021/08/23 06:40:50;;;;;;;18.55;7.60;;;;;;;-145.01;100.00;64805.59;4992178;28;20030;-64
2021/08/23 06:43:16;;;;;;;19.88;7.32;;;;;;;-145.01;100.00;64805.59;4993716;28;20499;-65
2021/08/23 06:45:42;;;;;;;20.35;7.25;;;;;;;-145.01;100.00;64805.59;4993529;28;20045;-65
2021/08/23 06:48:07;;;;;;;17.05;7.13;;;;;;;-145.01;100.00;64805.59;4993754;28;20416;-65
2021/08/23 06:50:33;;;;;;;15.10;6.10;;;;;;;-145.01;100.00;64805.59;4993202;28;20050;-65
2021/08/23 06:52:58;;;;;;;12.27;5.90;;;;;;;-145.01;100.00;64805.59;4993478;28;20034;-64
2021/08/23 06:55:24;;;;;;;15.30;5.93;;;;;;;-145.01;100.00;64805.59;4993257;28;20034;-65
2021/08/23 06:57:52;;;;;;;19.17;6.50;;;;;;;-145.01;100.00;64805.59;4993680;28;20041;-65
2021/08/23 07:00:17;;;;;;;16.13;6.45;;;;;;;-145.01;100.00;64805.59;4991788;28;20421;-65
2021/08/23 07:02:43;;;;;;;14.90;5.82;;;;;;;-145.01;100.00;64805.59;4993484;28;20034;-65
2021/08/23 07:05:09;;;;;;;10.75;5.53;;;;;;;-145.01;100.00;64805.59;4991646;28;20030;-65
2021/08/23 07:07:34;;;;;;;12.13;5.13;;;;;;;-145.01;100.00;64805.59;4992793;28;20027;-64
2021/08/23 07:10:00;;;;;;;15.77;5.28;;;;;;;-145.01;100.00;64805.59;4993221;28;20108;-65
2021/08/23 07:12:25;;;;;;;11.07;5.15;;;;;;;-145.01;100.00;64805.59;4993216;28;20092;-65
2021/08/23 07:14:51;;;;;;;9.40;4.90;;;;;;;-145.01;100.00;64805.59;4993054;28;20092;-65
2021/08/23 07:17:16;;;;;;;14.98;4.63;;;;;;;-145.01;100.00;64805.59;4992821;28;20050;-65
2021/08/23 07:19:42;;;;;;;8.80;4.75;;;;;;;-145.01;100.00;64805.59;4993323;28;20023;-65
2021/08/23 07:22:07;;;;;;;8.07;4.63;;;;;;;-145.01;100.00;64805.59;4992883;28;20031;-65
2021/08/23 07:24:32;;;;;;;8.73;4.72;;;;;;;-145.01;100.00;64805.59;4993508;28;20049;-65
2021/08/23 07:26:58;;;;;;;12.07;4.45;;;;;;;-145.01;100.00;64805.59;4991841;28;20046;-65
2021/08/23 07:29:25;;;;;;;11.75;4.22;;;;;;;-145.01;100.00;64805.59;4992445;28;20351;-65
2021/08/23 07:31:50;;;;;;;10.30;4.35;;;;;;;-145.01;100.00;64805.59;4992900;28;20093;-65
2021/08/23 07:34:16;;;;;;;10.98;4.57;;;;;;;-145.01;100.00;64805.59;4991991;28;20512;-65
2021/08/23 07:36:41;;;;;;;9.43;5.38;;;;;;;-145.01;100.00;64805.59;4992858;28;20049;-65
2021/08/23 07:39:06;;;;;;;9.82;4.97;;;;;;;-145.01;100.00;64805.59;4993149;28;20389;-65
2021/08/23 07:41:32;;;;;;;9.25;5.30;;;;;;;-145.01;100.00;64805.59;4992863;28;20500;-65
2021/08/23 07:43:57;;;;;;;12.07;4.97;;;;;;;-145.01;100.00;64805.59;4991864;28;20033;-65
2021/08/23 07:46:23;;;;;;;18.88;5.03;;;;;;;-145.01;100.00;64805.59;4992905;28;20458;-65
2021/08/23 07:48:48;;;;;;;13.65;5.32;;;;;;;-145.01;100.00;64805.59;4993241;28;20030;-65
2021/08/23 07:51:14;;;;;;;10.35;4.82;;;;;;;-145.01;100.00;64805.59;4991369;28;20392;-65
2021/08/23 07:53:39;;;;;;;8.90;5.63;;;;;;;-145.01;100.00;64805.59;4993017;28;20038;-65
2021/08/23 07:56:05;;;;;;;11.43;5.10;;;;;;;-145.01;100.00;64805.59;4991226;28;20039;-65
2021/08/23 07:58:30;;;;;;;10.10;5.97;;;;;;;-145.01;100.00;64805.59;4992898;28;20030;-65
2021/08/23 08:00:56;;;;;;;12.07;5.43;;;;;;;-145.01;100.00;64805.59;4992702;28;20204;-65
2021/08/23 08:03:21;;;;;;;10.45;4.75;;;;;;;-145.01;100.00;64805.59;4991772;28;20110;-65
2021/08/23 08:05:46;;;;;;;8.27;4.30;;;;;;;-145.01;100.00;64805.59;4992725;28;20035;-65
2021/08/23 08:08:12;;;;;;;9.48;4.38;;;;;;;-145.01;100.00;64805.59;4992803;28;20030;-65
2021/08/23 08:10:37;;;;;;;8.52;4.20;;;;;;;-145.01;100.00;64805.59;4992361;28;20042;-65
2021/08/23 08:13:03;;;;;;;10.52;4.20;;;;;;;-145.01;100.00;64805.59;4993096;28;20018;-65
2021/08/23 08:15:29;;;;;;;10.38;4.32;;;;;;;-145.01;100.00;64805.59;4992652;28;20065;-65
2021/08/23 08:17:54;;;;;;;10.20;3.80;;;;;;;-145.01;100.00;64805.59;4992772;28;20113;-65
2021/08/23 08:20:20;;;;;;;9.65;4.60;;;;;;;-145.01;100.00;64805.59;4992585;28;20026;-65
2021/08/23 08:22:45;;;;;;;14.95;4.85;;;;;;;-145.01;100.00;64805.59;4992877;28;20023;-66
2021/08/23 08:25:11;;;;;;;10.05;3.72;;;;;;;-145.01;100.00;64805.59;4992508;28;20030;-66
2021/08/23 08:27:37;;;;;;;8.10;3.60;;;;;;;-145.01;100.00;64805.59;4995435;28;20483;-65
2021/08/23 08:30:06;;;;;;;5.78;3.08;;;;;;;-145.01;100.00;64805.59;4995773;28;20121;-66
2021/08/23 08:32:32;;;;;;;6.22;3.30;;;;;;;-145.01;100.00;64805.59;4996224;28;20025;-65
2021/08/23 08:34:57;;;;;;;10.20;3.20;;;;;;;-145.01;100.00;64805.59;4996151;28;20018;-65
2021/08/23 08:37:23;;;;;;;5.95;2.90;;;;;;;-145.01;100.00;64805.59;4995694;28;20039;-66
2021/08/23 08:39:48;;;;;;;5.65;2.75;;;;;;;-145.01;100.00;64805.59;4996268;28;20026;-64
2021/08/23 08:42:17;;;;;;;6.65;2.97;;;;;;;-145.01;100.00;64805.59;4995602;28;20038;-64
2021/08/23 08:44:43;;;;;;;6.37;3.60;;;;;;;-145.01;100.00;64805.59;4996097;28;20085;-63
2021/08/23 08:47:09;;;;;;;10.07;3.90;;;;;;;-145.01;100.00;64805.59;4994164;28;20343;-63
2021/08/23 08:49:35;;;;;;;11.98;3.90;;;;;;;-145.01;100.00;64805.59;4994724;28;20026;-64
2021/08/23 08:52:02;;;;;;;7.00;3.83;;;;;;;-145.01;100.00;64805.59;4995506;28;20113;-66
2021/08/23 08:54:28;;;;;;;7.35;3.58;;;;;;;-145.01;100.00;64805.59;4994291;28;20089;-63
2021/08/23 08:56:53;;;;;;;11.13;4.78;;;;;;;-145.01;100.00;64805.59;4995292;28;20034;-66
2021/08/23 08:59:19;;;;;;;7.65;4.07;;;;;;;-145.01;100.00;64805.59;4995938;28;20030;-64
2021/08/23 09:01:45;;;;;;;8.80;3.92;;;;;;;-145.01;100.00;64805.59;4995096;28;20045;-64
2021/08/23 09:04:10;;;;;;;9.77;3.97;;;;;;;-145.01;100.00;64805.59;4995745;28;20037;-64
2021/08/23 09:06:39;;;;;;;7.32;3.67;;;;;;;-145.01;100.00;64805.59;4995164;28;20030;-64
2021/08/23 09:09:11;;;;;;;6.03;3.85;;;;;;;-145.01;100.00;64805.59;4995631;28;20624;-64
2021/08/23 09:11:39;;;;;;;7.78;4.13;;;;;;;-145.01;100.00;64805.59;4995098;28;20042;-64
2021/08/23 09:14:06;;;;;;;6.35;4.40;;;;;;;-145.01;100.00;64805.59;4995671;28;20034;-64
2021/08/23 09:16:43;;;;;;;8.02;4.28;;;;;;;-145.01;100.00;64805.59;4990988;28;20039;-64
2021/08/23 09:19:08;;;;;;;11.07;4.60;;;;;;;-145.01;100.00;64805.59;4994202;28;20370;-64
2021/08/23 09:21:38;;;;;;;10.23;5.32;;;;;;;-145.01;100.00;64805.59;4994889;28;20053;-64
2021/08/23 09:24:06;;;;;;;9.25;5.28;;;;;;;-145.01;100.00;64805.59;4995327;28;20030;-64
2021/08/23 09:26:33;;;;;;;9.05;5.90;;;;;;;-145.01;100.00;64805.59;4993515;28;20077;-64
2021/08/23 09:29:06;;;;;;;11.35;5.70;;;;;;;-145.01;100.00;64805.59;4993844;28;20465;-66
2021/08/23 09:31:36;;;;;;;10.57;6.38;;;;;;;-145.01;100.00;64805.59;4994841;28;20037;-65
2021/08/23 09:34:05;;;;;;;10.07;6.13;;;;;;;-145.01;100.00;64805.59;4995248;28;20045;-66
2021/08/23 09:36:31;;;;;;;13.00;5.90;;;;;;;-145.01;100.00;64805.59;4993328;28;20121;-64
2021/08/23 09:39:15;;;;;;;14.70;8.68;;;;;;;-145.01;100.00;64805.59;4994877;28;20037;-64
2021/08/23 09:41:41;;;;;;;9.65;6.68;;;;;;;-145.01;100.00;64805.59;4993248;28;20089;-64
2021/08/23 09:44:11;;;;;;;8.98;6.20;;;;;;;-145.01;100.00;64805.59;4994833;28;20023;-64
2021/08/23 09:46:36;;;;;;;;;;;;;;;-145.01;100.00;64805.59;4994779;28;20039;-64
2021/08/23 09:49:06;;;;;;;14.32;7.40;;;;;;;-145.01;100.00;64805.59;4994806;28;19971;-64
2021/08/23 09:51:36;;;;;;;10.95;7.68;;;;;;;-145.01;100.00;64805.59;4992851;28;20038;-64
2021/08/23 09:54:20;;;;;;;14.10;7.68;;;;;;;-145.01;100.00;64805.59;4994822;28;20466;-64
2021/08/23 09:56:53;;;;;;;13.48;7.57;;;;;;;-145.01;100.00;64805.59;4992959;28;20070;-67
2021/08/23 09:59:26;;;;;;;25.45;8.57;;;;;;;-145.01;100.00;64805.59;4994849;28;20045;-64
2021/08/23 10:01:53;;;;;;;16.27;8.07;;;;;;;-145.01;100.00;64805.59;4994362;28;20034;-65
2021/08/23 10:04:19;;;;;;;14.95;9.10;;;;;;;-145.01;100.00;64805.59;4994766;28;20484;-66
2021/08/23 10:06:45;;;;;;;15.25;8.95;;;;;;;-145.01;100.00;64805.59;4994130;28;20042;-64
2021/08/23 10:09:15;;;;;;;17.10;11.52;;;;;;;-145.01;100.00;64805.59;4994276;28;20054;-64
2021/08/23 10:11:41;;;;;;;16.73;9.57;;;;;;;-145.01;100.00;64805.59;4993729;28;20404;-64
2021/08/23 10:14:06;;;;;;;14.15;9.95;;;;;;;-145.01;100.00;64805.59;4976902;28;20030;-64
2021/08/23 10:16:33;;;;;;;11.52;9.48;;;;;;;-145.01;100.00;64805.59;4992694;28;20035;-64
2021/08/23 10:18:58;;;;;;;15.48;9.60;;;;;;;-145.01;100.00;64805.59;4994348;28;20097;-64
2021/08/23 10:21:24;;;;;;;14.40;10.30;;;;;;;-145.01;100.00;64805.59;4993968;28;20548;-64
2021/08/23 10:23:50;;;;;;;15.43;10.30;;;;;;;-145.01;100.00;64805.59;4993303;28;20022;-64
2021/08/23 10:26:16;;;;;;;15.32;10.48;;;;;;;-145.01;100.00;64805.59;4976310;28;20038;-64
2021/08/23 10:28:41;;;;;;;12.80;9.68;;;;;;;-145.01;100.00;64805.59;4993173;28;20037;-66
2021/08/23 10:31:07;;;;;;;16.42;10.25;;;;;;;-145.01;100.00;64805.59;4993878;28;20038;-64
2021/08/23 10:33:40;;;;;;;15.80;10.68;;;;;;;-145.01;100.00;64805.59;4994230;28;20573;-66
2021/08/23 10:36:07;;;;;;;13.85;10.20;;;;;;;-145.01;100.00;64805.59;4992384;28;20520;-65
2021/08/23 10:38:33;;;;;;;17.50;9.45;;;;;;;-145.01;100.00;64805.59;4992773;28;20036;-66
2021/08/23 10:41:15;;;;;;;17.65;10.98;;;;;;;-145.01;100.00;64805.59;4993769;28;20030;-66
2021/08/23 10:43:53;;;;;;;15.73;9.98;;;;;;;-145.01;100.00;64805.59;4992770;28;20026;-65
2021/08/23 10:46:19;;;;;;;14.70;10.10;;;;;;;-145.01;100.00;64805.59;4993518;28;20038;-66
2021/08/23 10:48:47;;;;;;;19.48;10.55;;;;;;;-145.01;100.00;64805.59;4993277;28;20508;-65
2021/08/23 10:51:13;;;;;;;16.25;12.18;;;;;;;-145.01;100.00;64805.59;4993256;28;20501;-65
2021/08/23 10:53:38;;;;;;;16.42;11.07;;;;;;;-145.01;100.00;64805.59;4993871;28;20030;-65
2021/08/23 10:56:14;;;;;;;21.27;10.73;;;;;;;-145.01;100.00;64805.59;4993427;28;20401;-65
2021/08/23 10:58:39;;;;;;;18.65;11.18;;;;;;;-145.01;100.00;64805.59;4993770;28;20050;-66